Terminal Aerodrome Forecast
Issued by NWS Cleveland, OH

Home | Current Version | Previous Version | Graphics & Text | Print | Product List | Glossary Off
Versions: 1 2 3 4 5 6 7 8 9 10 11 12 13 14

000
FTUS41 KCLE 280500
TAFERI
TAF
KERI 280530Z 2806/2906 16003KT P6SM BKN250
      TEMPO 2808/2812 5SM BR
     FM281600 02008KT P6SM BKN250
     FM290200 19002KT P6SM SCT200=

USA.gov is the U.S. government's official web portal to all federal, state and local government web resources and services.